createdAt,value
2019-05-19T00:01:01.476Z,12.62
2019-05-19T00:06:04.934Z,12.51
2019-05-19T00:11:08.244Z,12.31
2019-05-19T00:16:11.553Z,12.27
2019-05-19T00:21:14.862Z,12.13
2019-05-19T00:26:18.170Z,11.84
2019-05-19T00:31:21.617Z,11.34
2019-05-19T00:36:25.010Z,11.18
2019-05-19T00:41:28.313Z,11.48
2019-05-19T00:46:31.757Z,11.07
2019-05-19T00:51:35.238Z,11.48
2019-05-19T00:56:38.537Z,11.34
2019-05-19T01:01:41.954Z,11.28
2019-05-19T01:06:45.263Z,11.15
2019-05-19T01:11:48.570Z,10.97
2019-05-19T01:16:51.929Z,10.87
2019-05-19T01:21:56.344Z,10.84
2019-05-19T01:26:59.639Z,10.75
2019-05-19T01:32:02.997Z,10.72
2019-05-19T01:37:06.239Z,10.42
2019-05-19T01:42:09.537Z,10.26
2019-05-19T01:47:12.862Z,10.31
2019-05-19T01:52:16.168Z,10.31
2019-05-19T01:57:19.478Z,10.44
2019-05-19T02:02:22.869Z,10.22
2019-05-19T02:07:26.321Z,10.22
2019-05-19T02:12:29.696Z,10.10
2019-05-19T02:17:32.997Z,10.01
2019-05-19T02:22:36.295Z,9.95
2019-05-19T02:27:39.595Z,9.85
2019-05-19T02:32:43.022Z,9.90
2019-05-19T02:37:46.309Z,9.86
2019-05-19T02:42:51.079Z,9.77
2019-05-19T02:47:54.440Z,9.72
2019-05-19T02:52:59.303Z,9.52
2019-05-19T02:58:03.364Z,9.54
2019-05-19T03:03:07.203Z,9.08
2019-05-19T03:08:10.514Z,9.34
2019-05-19T03:13:13.803Z,9.40
2019-05-19T03:18:17.114Z,9.26
2019-05-19T03:23:20.422Z,9.26
2019-05-19T03:28:23.742Z,9.22
2019-05-19T03:33:28.701Z,9.08
2019-05-19T03:38:31.992Z,9.10
2019-05-19T03:43:35.299Z,9.09
2019-05-19T03:48:38.598Z,9.13
2019-05-19T03:53:41.889Z,9.12
2019-05-19T03:58:45.234Z,9.03
2019-05-19T04:03:48.512Z,9.03
2019-05-19T04:08:51.810Z,9.01
2019-05-19T04:13:55.115Z,9.07
2019-05-19T04:18:58.408Z,9.04
2019-05-19T04:24:01.719Z,9.18
2019-05-19T04:29:05.048Z,9.20
2019-05-19T04:34:08.345Z,9.27
2019-05-19T04:39:11.644Z,9.35
2019-05-19T04:44:14.952Z,9.49
2019-05-19T04:49:18.255Z,9.67
2019-05-19T04:54:21.565Z,9.84
2019-05-19T04:59:24.877Z,10.03
2019-05-19T05:04:29.489Z,10.06
2019-05-19T05:09:33.075Z,10.22
2019-05-19T05:14:36.366Z,10.07
2019-05-19T05:19:39.671Z,10.29
2019-05-19T05:24:43.044Z,10.54
2019-05-19T05:29:46.340Z,10.71
2019-05-19T05:34:49.651Z,10.89
2019-05-19T05:39:52.979Z,11.10
2019-05-19T05:44:56.289Z,11.33
2019-05-19T05:49:59.598Z,11.49
2019-05-19T05:55:02.965Z,11.64
2019-05-19T06:00:07.867Z,11.89
2019-05-19T06:05:11.303Z,12.14
2019-05-19T06:10:14.691Z,12.44
2019-05-19T06:15:17.989Z,12.50
2019-05-19T06:20:21.297Z,12.68
2019-05-19T06:25:24.696Z,12.79
2019-05-19T06:30:28.025Z,12.96
2019-05-19T06:35:31.343Z,13.16
2019-05-19T06:40:34.660Z,13.41
2019-05-19T06:45:37.978Z,13.69
2019-05-19T06:50:41.299Z,13.92
2019-05-19T06:55:44.593Z,13.96
2019-05-19T07:00:47.899Z,14.19
2019-05-19T07:05:51.240Z,14.33
2019-05-19T07:10:54.523Z,14.34
2019-05-19T07:15:57.860Z,14.91
2019-05-19T07:21:01.235Z,15.43
2019-05-19T07:26:04.548Z,15.35
2019-05-19T07:31:07.851Z,15.17
2019-05-19T07:36:11.165Z,15.47
2019-05-19T07:41:14.505Z,15.84
2019-05-19T07:46:17.815Z,16.32
2019-05-19T07:51:21.129Z,16.32
2019-05-19T07:56:24.557Z,16.46
2019-05-19T08:01:27.834Z,17.25
2019-05-19T08:06:31.128Z,17.07
2019-05-19T08:11:34.791Z,17.25
2019-05-19T08:16:38.107Z,17.99
2019-05-19T08:21:41.390Z,17.99
2019-05-19T08:26:44.695Z,17.88
2019-05-19T08:31:48.020Z,17.96
2019-05-19T08:36:51.320Z,17.99
2019-05-19T08:41:54.639Z,18.74
2019-05-19T08:46:57.952Z,19.10
2019-05-19T08:52:01.302Z,18.88
2019-05-19T08:57:04.558Z,18.96
2019-05-19T09:02:07.883Z,18.85
2019-05-19T09:07:11.174Z,18.84
2019-05-19T09:12:14.509Z,19.36
2019-05-19T09:17:17.853Z,19.17
2019-05-19T09:22:21.171Z,19.71
2019-05-19T09:27:24.474Z,19.93
2019-05-19T09:32:28.015Z,19.93
2019-05-19T09:37:31.380Z,20.53
2019-05-19T09:42:34.682Z,20.50
2019-05-19T09:47:39.027Z,20.10
2019-05-19T09:52:42.301Z,20.64
2019-05-19T09:57:45.637Z,20.71
2019-05-19T10:02:49.043Z,20.72
2019-05-19T10:07:52.356Z,21.46
2019-05-19T10:12:55.660Z,21.22
2019-05-19T10:17:58.965Z,21.48
2019-05-19T10:23:02.305Z,21.49
2019-05-19T10:28:05.619Z,21.39
2019-05-19T10:33:09.015Z,21.27
2019-05-19T10:38:12.332Z,21.19
2019-05-19T10:43:15.651Z,21.22
2019-05-19T10:48:18.951Z,20.96
2019-05-19T10:53:22.254Z,21.77
2019-05-19T10:58:25.651Z,20.83
2019-05-19T11:03:28.958Z,21.28
2019-05-19T11:08:32.267Z,21.39
2019-05-19T11:13:35.743Z,21.37
2019-05-19T11:18:39.024Z,21.78
2019-05-19T11:23:42.320Z,21.30
2019-05-19T11:28:45.640Z,21.90
2019-05-19T11:33:49.009Z,22.35
2019-05-19T11:38:52.342Z,22.07
2019-05-19T11:43:55.649Z,22.36
2019-05-19T11:48:58.972Z,22.53
2019-05-19T11:54:02.327Z,22.67
2019-05-19T11:59:05.654Z,23.22
2019-05-19T12:04:09.120Z,23.17
2019-05-19T12:09:12.388Z,22.96
2019-05-19T12:14:16.647Z,23.45
2019-05-19T12:19:19.936Z,22.75
2019-05-19T12:24:23.259Z,23.31
2019-05-19T12:29:26.575Z,23.34
2019-05-19T12:34:29.874Z,23.12
2019-05-19T12:39:33.166Z,23.57
2019-05-19T12:44:36.513Z,23.31
2019-05-19T12:49:39.826Z,24.00
2019-05-19T12:54:43.141Z,23.55
2019-05-19T12:59:46.440Z,23.69
2019-05-19T13:05:04.212Z,23.71
2019-05-19T13:09:54.779Z,23.62
2019-05-19T13:14:58.090Z,24.33
2019-05-19T13:20:01.384Z,24.95
2019-05-19T13:25:05.564Z,24.36
2019-05-19T13:30:09.199Z,24.77
2019-05-19T13:35:12.737Z,24.80
2019-05-19T13:40:16.108Z,25.21
2019-05-19T13:45:20.255Z,25.01
2019-05-19T13:50:23.541Z,25.03
2019-05-19T13:55:26.855Z,25.08
2019-05-19T14:00:30.151Z,25.75
2019-05-19T14:05:33.508Z,25.74
2019-05-19T14:10:36.875Z,25.67
2019-05-19T14:15:41.941Z,24.04
2019-05-19T14:20:45.219Z,25.34
2019-05-19T14:25:48.541Z,25.53
2019-05-19T14:30:51.840Z,25.90
2019-05-19T14:35:55.183Z,25.80
2019-05-19T14:40:58.486Z,25.65
2019-05-19T14:46:01.820Z,24.91
2019-05-19T14:51:05.136Z,26.10
2019-05-19T14:56:08.426Z,26.62
2019-05-19T15:01:11.783Z,26.15
2019-05-19T15:06:15.085Z,26.77
2019-05-19T15:11:18.418Z,26.31
2019-05-19T15:16:21.725Z,26.21
2019-05-19T15:21:25.014Z,25.53
2019-05-19T15:26:29.323Z,26.22
2019-05-19T15:31:32.642Z,26.98
2019-05-19T15:36:35.968Z,26.99
2019-05-19T15:41:39.268Z,26.89
2019-05-19T15:46:42.593Z,27.03
2019-05-19T15:52:00.778Z,27.36
2019-05-19T15:56:51.091Z,26.79
2019-05-19T16:01:54.391Z,26.47
2019-05-19T16:06:57.714Z,24.79
2019-05-19T16:12:01.054Z,25.30
2019-05-19T16:17:04.344Z,25.66
2019-05-19T16:22:07.661Z,24.31
2019-05-19T16:27:12.833Z,24.37
2019-05-19T16:32:16.005Z,24.52
2019-05-19T16:37:19.298Z,23.89
2019-05-19T16:42:22.663Z,23.22
2019-05-19T16:47:26.024Z,22.61
2019-05-19T16:52:29.305Z,22.23
2019-05-19T16:57:32.584Z,21.89
2019-05-19T17:02:35.862Z,22.03
2019-05-19T17:07:39.210Z,21.80
2019-05-19T17:12:42.461Z,21.72
2019-05-19T17:17:45.865Z,21.38
2019-05-19T17:22:49.299Z,21.02
2019-05-19T17:27:53.547Z,20.90
2019-05-19T17:32:56.924Z,20.84
2019-05-19T17:38:00.268Z,20.61
2019-05-19T17:43:03.553Z,20.23
2019-05-19T17:48:10.309Z,20.14
2019-05-19T17:53:12.920Z,20.25
2019-05-19T17:58:16.293Z,19.85
2019-05-19T18:03:19.603Z,19.66
2019-05-19T18:08:23.076Z,19.64
2019-05-19T18:13:26.825Z,19.49
2019-05-19T18:18:30.210Z,19.26
2019-05-19T18:23:34.961Z,19.30
2019-05-19T18:28:42.049Z,19.22
2019-05-19T18:33:47.122Z,18.97
2019-05-19T18:38:50.513Z,18.92
2019-05-19T18:43:55.834Z,18.67
2019-05-19T18:48:59.351Z,18.68
2019-05-19T18:54:02.796Z,18.48
2019-05-19T18:59:06.181Z,18.29
2019-05-19T19:04:10.734Z,18.32
2019-05-19T19:09:14.635Z,18.27
2019-05-19T19:14:20.201Z,17.99
2019-05-19T19:19:25.182Z,17.98
2019-05-19T19:24:28.888Z,18.01
2019-05-19T19:29:32.684Z,17.96
2019-05-19T19:34:36.543Z,17.76
2019-05-19T19:39:40.095Z,17.36
2019-05-19T19:44:43.723Z,17.08
2019-05-19T19:49:48.030Z,17.01
2019-05-19T19:54:54.281Z,16.54
2019-05-19T20:00:15.789Z,16.66
2019-05-19T20:05:09.345Z,16.85
2019-05-19T20:10:12.954Z,16.47
2019-05-19T20:15:16.472Z,16.25
2019-05-19T20:20:19.976Z,16.52
2019-05-19T20:25:23.420Z,16.10
2019-05-19T20:30:35.743Z,16.14
2019-05-19T20:35:33.376Z,15.97
2019-05-19T20:40:36.851Z,15.67
2019-05-19T20:45:40.285Z,15.65
2019-05-19T20:50:43.592Z,15.97
2019-05-19T20:55:47.268Z,16.01
2019-05-19T21:00:51.963Z,15.91
2019-05-19T21:05:55.490Z,15.62
2019-05-19T21:10:59.019Z,15.51
2019-05-19T21:16:02.294Z,15.60
2019-05-19T21:21:06.621Z,15.69
2019-05-19T21:26:10.065Z,15.69
2019-05-19T21:31:13.459Z,15.63
2019-05-19T21:36:16.997Z,15.61
2019-05-19T21:41:20.280Z,15.61
2019-05-19T21:46:23.590Z,15.59
2019-05-19T21:51:26.872Z,15.56
2019-05-19T21:56:30.304Z,15.53
2019-05-19T22:01:34.007Z,15.38
2019-05-19T22:06:39.075Z,15.30
2019-05-19T22:11:42.392Z,15.21
2019-05-19T22:16:45.677Z,15.07
2019-05-19T22:21:48.993Z,14.78
2019-05-19T22:26:52.306Z,14.87
2019-05-19T22:31:55.582Z,14.37
2019-05-19T22:36:58.876Z,14.41
2019-05-19T22:42:02.222Z,14.15
2019-05-19T22:47:05.510Z,14.29
2019-05-19T22:52:08.817Z,14.05
2019-05-19T22:57:12.131Z,14.12
2019-05-19T23:02:15.446Z,14.05
2019-05-19T23:07:18.759Z,14.34
2019-05-19T23:12:22.117Z,14.35
2019-05-19T23:17:25.414Z,14.30
2019-05-19T23:22:28.716Z,14.16
2019-05-19T23:27:32.114Z,14.19
2019-05-19T23:32:35.528Z,14.09
2019-05-19T23:37:38.896Z,14.03
2019-05-19T23:42:42.259Z,13.81
2019-05-19T23:47:45.554Z,13.99
2019-05-19T23:52:49.027Z,13.91
2019-05-19T23:57:53.680Z,13.81
